createdAt,value
2023-05-11T00:00:55.959Z,34.09
2023-05-11T00:01:56.042Z,34.11
2023-05-11T00:02:56.182Z,34.11
2023-05-11T00:03:56.307Z,34.13
2023-05-11T00:04:56.157Z,34.09
2023-05-11T00:05:56.189Z,34.07
2023-05-11T00:06:56.236Z,34.11
2023-05-11T00:07:56.281Z,34.07
2023-05-11T00:08:56.344Z,34.06
2023-05-11T00:09:56.400Z,34.05
2023-05-11T00:10:56.428Z,34.09
2023-05-11T00:11:56.446Z,34.05
2023-05-11T00:12:56.484Z,34.03
2023-05-11T00:13:56.536Z,34.03
2023-05-11T00:14:56.571Z,34.06
2023-05-11T00:15:56.704Z,34.05
2023-05-11T00:16:56.628Z,34.05
2023-05-11T00:17:56.766Z,34.01
2023-05-11T00:18:56.748Z,34.03
2023-05-11T00:19:56.791Z,34.05
2023-05-11T00:20:56.822Z,34.05
2023-05-11T00:21:56.845Z,33.99
2023-05-11T00:22:56.873Z,34.03
2023-05-11T00:23:56.915Z,33.97
2023-05-11T00:24:56.946Z,33.99
2023-05-11T00:25:56.989Z,33.95
2023-05-11T00:26:57.041Z,33.88
2023-05-11T00:27:57.106Z,33.93
2023-05-11T00:28:57.090Z,33.94
2023-05-11T00:29:57.150Z,33.91
2023-05-11T00:30:57.187Z,33.94
2023-05-11T00:31:57.267Z,33.91
2023-05-11T00:32:57.290Z,33.85
2023-05-11T00:33:57.280Z,33.91
2023-05-11T00:34:57.311Z,33.90
2023-05-11T00:35:57.384Z,33.87
2023-05-11T00:36:57.423Z,33.89
2023-05-11T00:37:57.461Z,33.83
2023-05-11T00:38:57.491Z,33.88
2023-05-11T00:39:57.520Z,33.85
2023-05-11T00:40:57.574Z,33.81
2023-05-11T00:41:57.603Z,33.82
2023-05-11T00:42:57.662Z,33.80
2023-05-11T00:43:57.687Z,33.84
2023-05-11T00:44:57.710Z,33.83
2023-05-11T00:45:57.770Z,33.79
2023-05-11T00:46:57.843Z,33.84
2023-05-11T00:47:57.874Z,33.80
2023-05-11T00:48:57.896Z,33.82
2023-05-11T00:49:57.945Z,33.84
2023-05-11T00:50:57.973Z,33.79
2023-05-11T00:51:58.041Z,33.81
2023-05-11T00:52:58.064Z,33.74
2023-05-11T00:53:58.115Z,33.78
2023-05-11T00:54:58.146Z,33.74
2023-05-11T00:55:58.193Z,33.79
2023-05-11T00:56:58.233Z,33.72
2023-05-11T00:57:58.307Z,33.70
2023-05-11T00:58:58.347Z,33.71
2023-05-11T00:59:58.381Z,33.69
2023-05-11T01:00:58.432Z,33.62
2023-05-11T01:01:58.502Z,33.62
2023-05-11T01:02:58.510Z,33.65
2023-05-11T01:03:58.540Z,33.65
2023-05-11T01:04:58.593Z,33.65
2023-05-11T01:05:58.638Z,33.61
2023-05-11T01:06:58.660Z,33.57
2023-05-11T01:07:58.705Z,33.65
2023-05-11T01:08:58.759Z,33.60
2023-05-11T01:09:58.779Z,33.56
2023-05-11T01:10:58.846Z,33.60
2023-05-11T01:11:58.877Z,33.60
2023-05-11T01:12:58.894Z,33.58
2023-05-11T01:13:58.963Z,33.58
2023-05-11T01:14:59.036Z,33.55
2023-05-11T01:15:59.073Z,33.55
2023-05-11T01:16:59.171Z,33.52
2023-05-11T01:17:59.192Z,33.57
2023-05-11T01:18:59.299Z,33.55
2023-05-11T01:19:59.249Z,33.49
2023-05-11T01:20:59.292Z,33.48
2023-05-11T01:21:59.313Z,33.49
2023-05-11T01:22:59.379Z,33.47
2023-05-11T01:23:59.397Z,33.45
2023-05-11T01:24:59.445Z,33.43
2023-05-11T01:25:59.511Z,33.52
2023-05-11T01:26:59.561Z,33.40
2023-05-11T01:27:59.613Z,33.39
2023-05-11T01:28:59.666Z,33.39
2023-05-11T01:29:59.679Z,33.34
2023-05-11T01:30:59.740Z,33.33
2023-05-11T01:31:59.819Z,33.31
2023-05-11T01:32:59.939Z,33.38
2023-05-11T01:33:59.876Z,33.34
2023-05-11T01:34:59.933Z,33.35
2023-05-11T01:35:59.983Z,33.28
2023-05-11T01:37:00.002Z,33.25
2023-05-11T01:38:00.070Z,33.28
2023-05-11T01:39:00.115Z,33.28
2023-05-11T01:40:00.179Z,33.29
2023-05-11T01:41:00.184Z,33.31
2023-05-11T01:42:00.236Z,33.28
2023-05-11T01:43:00.325Z,33.22
2023-05-11T01:44:00.354Z,33.26
2023-05-11T01:45:00.397Z,33.21
2023-05-11T01:46:00.455Z,33.22
2023-05-11T01:47:00.484Z,33.24
2023-05-11T01:48:00.541Z,33.16
2023-05-11T01:49:00.585Z,33.08
2023-05-11T01:50:00.613Z,33.11
2023-05-11T01:51:00.650Z,33.14
2023-05-11T01:52:00.712Z,33.09
2023-05-11T01:53:00.762Z,33.14
2023-05-11T01:54:00.824Z,33.06
2023-05-11T01:55:00.880Z,33.07
2023-05-11T01:56:00.912Z,33.04
2023-05-11T01:57:00.964Z,32.97
2023-05-11T01:58:01.002Z,33.00
2023-05-11T01:59:01.057Z,33.07
2023-05-11T02:00:01.110Z,33.10
2023-05-11T02:01:01.136Z,32.97
2023-05-11T02:02:01.253Z,33.00
2023-05-11T02:03:01.338Z,32.98
2023-05-11T02:04:01.266Z,33.04
2023-05-11T02:05:01.304Z,33.01
2023-05-11T02:06:01.394Z,33.02
2023-05-11T02:07:01.422Z,32.94
2023-05-11T02:08:01.483Z,32.91
2023-05-11T02:09:01.537Z,32.95
2023-05-11T02:10:01.605Z,32.98
2023-05-11T02:11:01.592Z,33.00
2023-05-11T02:12:01.671Z,32.88
2023-05-11T02:13:01.704Z,32.98
2023-05-11T02:14:01.732Z,32.89
2023-05-11T02:15:01.763Z,32.89
2023-05-11T02:16:01.824Z,32.90
2023-05-11T02:17:01.845Z,32.85
2023-05-11T02:18:01.945Z,32.83
2023-05-11T02:19:02.059Z,32.81
2023-05-11T02:20:01.970Z,32.78
2023-05-11T02:21:02.023Z,32.75
2023-05-11T02:22:02.066Z,32.81
2023-05-11T02:23:02.125Z,32.87
2023-05-11T02:24:02.163Z,32.81
2023-05-11T02:25:02.250Z,32.80
2023-05-11T02:26:02.281Z,32.75
2023-05-11T02:27:02.349Z,32.78
2023-05-11T02:28:02.342Z,32.78
2023-05-11T02:29:02.396Z,32.73
2023-05-11T02:30:02.480Z,32.71
2023-05-11T02:31:02.546Z,32.73
2023-05-11T02:32:02.548Z,32.63
2023-05-11T02:33:02.698Z,32.58
2023-05-11T02:34:02.668Z,32.65
2023-05-11T02:35:02.727Z,32.64
2023-05-11T02:36:02.771Z,32.65
2023-05-11T02:37:02.816Z,32.68
2023-05-11T02:38:02.842Z,32.68
2023-05-11T02:39:02.904Z,32.70
2023-05-11T02:40:02.996Z,32.64
2023-05-11T02:41:02.992Z,32.73
2023-05-11T02:42:03.048Z,32.73
2023-05-11T02:43:03.086Z,32.61
2023-05-11T02:44:03.137Z,32.67
2023-05-11T02:45:03.246Z,32.61
2023-05-11T02:46:03.369Z,32.63
2023-05-11T02:47:03.353Z,32.55
2023-05-11T02:48:03.547Z,32.55
2023-05-11T02:49:03.401Z,32.59
2023-05-11T02:50:03.438Z,32.54
2023-05-11T02:51:03.494Z,32.52
2023-05-11T02:52:03.577Z,32.49
2023-05-11T02:53:03.631Z,32.52
2023-05-11T02:54:03.651Z,32.44
2023-05-11T02:55:03.729Z,32.45
2023-05-11T02:56:03.792Z,32.44
2023-05-11T02:57:03.836Z,32.44
2023-05-11T02:58:03.880Z,32.45
2023-05-11T02:59:03.914Z,32.47
2023-05-11T03:00:04.001Z,32.38
2023-05-11T03:01:04.046Z,32.38
2023-05-11T03:02:04.218Z,32.38
2023-05-11T03:03:04.207Z,32.40
2023-05-11T03:04:04.195Z,32.40
2023-05-11T03:05:04.234Z,32.40
2023-05-11T03:06:04.270Z,32.42
2023-05-11T03:07:04.329Z,32.40
2023-05-11T03:08:04.385Z,32.38
2023-05-11T03:09:04.466Z,32.27
2023-05-11T03:10:04.572Z,32.37
2023-05-11T03:11:04.565Z,32.31
2023-05-11T03:12:04.632Z,32.27
2023-05-11T03:13:04.703Z,32.38
2023-05-11T03:14:04.721Z,32.25
2023-05-11T03:15:04.788Z,32.30
2023-05-11T03:16:05.446Z,32.30
2023-05-11T03:17:04.923Z,32.30
2023-05-11T03:18:04.964Z,32.34
2023-05-11T03:19:05.029Z,32.35
2023-05-11T03:20:05.019Z,32.34
2023-05-11T03:21:05.093Z,32.30
2023-05-11T03:22:05.136Z,32.25
2023-05-11T03:23:05.171Z,32.25
2023-05-11T03:24:05.253Z,32.25
2023-05-11T03:25:05.313Z,32.25
2023-05-11T03:26:05.342Z,32.27
2023-05-11T03:27:05.383Z,32.21
2023-05-11T03:28:05.458Z,32.21
2023-05-11T03:29:05.483Z,32.17
2023-05-11T03:30:05.529Z,32.14
2023-05-11T03:31:05.684Z,32.18
2023-05-11T03:32:05.705Z,32.22
2023-05-11T03:33:05.807Z,32.24
2023-05-11T03:34:05.771Z,32.21
2023-05-11T03:35:05.817Z,32.24
2023-05-11T03:36:05.877Z,32.16
2023-05-11T03:37:05.988Z,32.12
2023-05-11T03:38:05.954Z,32.10
2023-05-11T03:39:05.998Z,32.09
2023-05-11T03:40:06.083Z,32.14
2023-05-11T03:41:06.130Z,32.17
2023-05-11T03:42:06.148Z,32.15
2023-05-11T03:43:06.225Z,32.18
2023-05-11T03:44:06.278Z,32.21
2023-05-11T03:45:06.348Z,32.19
2023-05-11T03:46:06.406Z,32.14
2023-05-11T03:47:06.451Z,32.21
2023-05-11T03:48:06.478Z,32.14
2023-05-11T03:49:06.537Z,32.18
2023-05-11T03:50:06.629Z,32.12
2023-05-11T03:51:06.664Z,32.12
2023-05-11T03:52:06.701Z,32.02
2023-05-11T03:53:06.804Z,31.99
2023-05-11T03:54:06.815Z,31.99
2023-05-11T03:55:06.888Z,31.94
2023-05-11T03:56:06.930Z,31.92
2023-05-11T03:57:07.003Z,31.95
2023-05-11T03:58:07.049Z,31.91
2023-05-11T03:59:07.122Z,31.90
2023-05-11T04:00:07.156Z,31.92
2023-05-11T04:01:07.195Z,31.95
2023-05-11T04:02:07.348Z,31.88
2023-05-11T04:03:07.402Z,31.85
2023-05-11T04:04:07.583Z,31.89
2023-05-11T04:05:07.447Z,31.92
2023-05-11T04:06:07.543Z,31.91
2023-05-11T04:07:07.543Z,31.94
2023-05-11T04:08:07.615Z,31.98
2023-05-11T04:09:07.674Z,31.95
2023-05-11T04:10:07.718Z,32.02
2023-05-11T04:11:07.789Z,31.94
2023-05-11T04:12:07.848Z,31.95
2023-05-11T04:13:07.904Z,31.86
2023-05-11T04:14:07.935Z,31.88
2023-05-11T04:15:08.038Z,31.81
2023-05-11T04:16:08.132Z,31.82
2023-05-11T04:17:08.100Z,31.82
2023-05-11T04:18:08.216Z,31.82
2023-05-11T04:19:08.251Z,31.76
2023-05-11T04:20:08.332Z,31.78
2023-05-11T04:21:08.344Z,31.84
2023-05-11T04:22:08.397Z,31.81
2023-05-11T04:23:10.336Z,31.81
2023-05-11T04:24:08.519Z,31.78
2023-05-11T04:25:08.583Z,31.79
2023-05-11T04:26:08.620Z,31.82
2023-05-11T04:27:08.686Z,31.82
2023-05-11T04:28:08.741Z,31.88
2023-05-11T04:29:08.802Z,31.81
2023-05-11T04:30:08.862Z,31.81
2023-05-11T04:31:08.941Z,31.86
2023-05-11T04:32:08.978Z,31.91
2023-05-11T04:33:09.094Z,31.86
2023-05-11T04:34:09.088Z,31.91
2023-05-11T04:35:09.186Z,31.88
2023-05-11T04:36:09.196Z,31.89
2023-05-11T04:37:09.259Z,31.92
2023-05-11T04:38:09.320Z,31.88
2023-05-11T04:39:09.370Z,31.89
2023-05-11T04:40:09.447Z,31.91
2023-05-11T04:41:09.517Z,31.88
2023-05-11T04:42:09.534Z,31.92
2023-05-11T04:43:09.592Z,31.90
2023-05-11T04:44:09.652Z,31.87
2023-05-11T04:45:09.693Z,31.91
2023-05-11T04:46:09.756Z,31.90
2023-05-11T04:47:09.839Z,31.90
2023-05-11T04:48:09.869Z,31.88
2023-05-11T04:49:09.925Z,31.91
2023-05-11T04:50:09.935Z,31.86
2023-05-11T04:51:10.026Z,31.90
2023-05-11T04:52:10.047Z,31.86
2023-05-11T04:53:10.067Z,31.89
2023-05-11T04:54:10.142Z,31.86
2023-05-11T04:55:10.186Z,31.89
2023-05-11T04:56:10.214Z,31.83
2023-05-11T04:57:10.292Z,31.78
2023-05-11T04:58:10.346Z,31.81
2023-05-11T04:59:10.325Z,31.78
2023-05-11T05:00:10.436Z,31.78
2023-05-11T05:01:17.558Z,31.72
2023-05-11T05:02:10.438Z,31.70
2023-05-11T05:03:10.427Z,31.70
2023-05-11T05:04:10.563Z,31.68
2023-05-11T05:05:10.450Z,31.74
2023-05-11T05:06:10.394Z,31.68
2023-05-11T05:07:10.417Z,31.64
2023-05-11T05:08:10.387Z,31.60
2023-05-11T05:09:10.412Z,31.66
2023-05-11T05:10:10.360Z,31.67
2023-05-11T05:11:10.363Z,31.60
2023-05-11T05:12:10.393Z,31.66
2023-05-11T05:13:10.396Z,31.57
2023-05-11T05:14:10.375Z,31.59
2023-05-11T05:15:10.368Z,31.59
2023-05-11T05:16:10.466Z,31.56
2023-05-11T05:17:10.503Z,31.54
2023-05-11T05:18:10.395Z,31.51
2023-05-11T05:19:10.337Z,31.52
2023-05-11T05:20:10.387Z,31.47
2023-05-11T05:21:10.324Z,31.55
2023-05-11T05:22:10.338Z,31.49
2023-05-11T05:23:10.312Z,31.45
2023-05-11T05:24:10.339Z,31.49
2023-05-11T05:25:10.316Z,31.46
2023-05-11T05:26:10.277Z,31.40
2023-05-11T05:27:10.292Z,31.43
2023-05-11T05:28:10.279Z,31.39
2023-05-11T05:29:10.308Z,31.41
2023-05-11T05:30:10.269Z,31.39
2023-05-11T05:31:10.291Z,31.38
2023-05-11T05:32:10.240Z,31.37
2023-05-11T05:33:10.284Z,31.21
2023-05-11T05:34:10.223Z,29.91
2023-05-11T05:35:10.302Z,29.35
2023-05-11T05:36:10.281Z,29.56
2023-05-11T05:37:10.318Z,29.23
2023-05-11T05:38:10.325Z,30.21
2023-05-11T05:39:10.338Z,29.96
2023-05-11T05:40:10.359Z,30.50
2023-05-11T05:41:10.553Z,29.86
2023-05-11T05:42:10.516Z,31.30
2023-05-11T05:43:10.536Z,30.20
2023-05-11T05:44:10.635Z,30.40
2023-05-11T05:45:12.495Z,29.02
2023-05-11T05:46:18.108Z,30.93
2023-05-11T05:47:10.598Z,30.63
2023-05-11T05:48:10.612Z,30.90
2023-05-11T05:49:10.573Z,30.83
2023-05-11T05:50:10.560Z,30.81
2023-05-11T05:51:10.567Z,30.79
2023-05-11T05:52:10.566Z,30.63
2023-05-11T05:53:10.585Z,30.53
2023-05-11T05:54:10.539Z,30.63
2023-05-11T05:55:10.534Z,30.48
2023-05-11T05:56:10.544Z,30.43
2023-05-11T05:57:10.510Z,30.33
2023-05-11T05:58:10.510Z,30.25
2023-05-11T05:59:10.518Z,29.97
2023-05-11T06:00:10.484Z,29.99
2023-05-11T06:01:10.462Z,30.29
2023-05-11T06:02:10.548Z,29.60
2023-05-11T06:03:10.564Z,29.45
2023-05-11T06:04:10.678Z,29.32
2023-05-11T06:05:10.500Z,29.26
2023-05-11T06:06:10.462Z,29.15
2023-05-11T06:07:10.437Z,29.02
2023-05-11T06:08:11.356Z,28.90
2023-05-11T06:09:11.487Z,29.02
2023-05-11T06:10:10.478Z,28.90
2023-05-11T06:11:10.411Z,28.49
2023-05-11T06:12:10.400Z,28.07
2023-05-11T06:13:10.393Z,28.05
2023-05-11T06:14:10.380Z,27.80
2023-05-11T06:15:10.384Z,27.84
2023-05-11T06:16:10.418Z,27.85
2023-05-11T06:17:10.394Z,27.65
2023-05-11T06:18:10.383Z,27.50
2023-05-11T06:19:10.410Z,27.84
2023-05-11T06:20:10.367Z,28.07
2023-05-11T06:21:10.355Z,28.06
2023-05-11T06:22:10.359Z,28.13
2023-05-11T06:23:10.348Z,28.21
2023-05-11T06:24:10.321Z,28.26
2023-05-11T06:25:10.301Z,28.24
2023-05-11T06:26:10.337Z,28.31
2023-05-11T06:27:10.365Z,27.94
2023-05-11T06:28:10.345Z,27.86
2023-05-11T06:29:10.384Z,28.13
2023-05-11T06:30:10.437Z,28.27
2023-05-11T06:31:10.454Z,27.81
2023-05-11T06:32:10.498Z,27.70
2023-05-11T06:33:10.482Z,27.83
2023-05-11T06:34:10.558Z,28.92
2023-05-11T06:35:10.553Z,29.37
2023-05-11T06:36:10.588Z,29.06
2023-05-11T06:37:10.622Z,28.96
2023-05-11T06:38:10.614Z,28.51
2023-05-11T06:39:10.663Z,28.76
2023-05-11T06:40:10.667Z,27.86
2023-05-11T06:41:10.741Z,27.89
2023-05-11T06:42:10.766Z,27.80
2023-05-11T06:43:10.737Z,28.63
2023-05-11T06:44:10.814Z,29.08
2023-05-11T06:45:10.835Z,29.05
2023-05-11T06:46:10.923Z,28.97
2023-05-11T06:47:11.104Z,28.84
2023-05-11T06:48:10.942Z,28.38
2023-05-11T06:49:10.871Z,28.22
2023-05-11T06:51:23.863Z,27.94
2023-05-11T06:52:23.887Z,28.29
2023-05-11T06:53:23.927Z,28.00
2023-05-11T06:54:23.948Z,28.17
2023-05-11T06:55:23.936Z,27.96
2023-05-11T06:56:23.985Z,27.93
2023-05-11T06:57:23.999Z,28.19
2023-05-11T06:58:24.032Z,28.40
2023-05-11T06:59:24.004Z,29.15
2023-05-11T07:00:24.041Z,29.00
2023-05-11T07:01:24.096Z,28.71
2023-05-11T07:02:24.582Z,28.80
2023-05-11T07:03:24.059Z,29.08
2023-05-11T07:04:24.106Z,28.76
2023-05-11T07:05:24.089Z,28.47
2023-05-11T07:06:24.088Z,28.32
2023-05-11T07:07:24.432Z,28.74
2023-05-11T07:08:24.114Z,28.44
2023-05-11T07:09:24.145Z,28.00
2023-05-11T07:10:24.172Z,28.19
2023-05-11T07:11:24.170Z,28.41
2023-05-11T07:12:24.164Z,28.30
2023-05-11T07:13:24.200Z,28.74
2023-05-11T07:14:24.204Z,28.68
2023-05-11T07:15:24.221Z,28.43
2023-05-11T07:16:24.264Z,28.47
2023-05-11T07:17:24.232Z,28.20
2023-05-11T07:18:24.259Z,27.85
2023-05-11T07:19:24.250Z,27.67
2023-05-11T07:20:24.209Z,27.71
2023-05-11T07:21:24.222Z,27.98
2023-05-11T07:22:24.210Z,28.13
2023-05-11T07:23:24.224Z,28.23
2023-05-11T07:24:24.280Z,28.11
2023-05-11T07:25:24.264Z,28.12
2023-05-11T07:26:24.208Z,27.99
2023-05-11T07:27:24.228Z,27.82
2023-05-11T07:28:24.450Z,28.03
2023-05-11T07:29:24.250Z,28.07
2023-05-11T07:30:24.650Z,28.29
2023-05-11T07:31:24.282Z,28.74
2023-05-11T07:32:24.278Z,28.32
2023-05-11T07:33:24.251Z,28.76
2023-05-11T07:34:24.204Z,28.33
2023-05-11T07:35:24.465Z,27.87
2023-05-11T07:36:24.251Z,28.56
2023-05-11T07:37:24.246Z,28.41
2023-05-11T07:38:24.231Z,28.26
2023-05-11T07:39:24.327Z,28.16
2023-05-11T07:40:24.211Z,28.34
2023-05-11T07:41:24.211Z,27.53
2023-05-11T07:42:24.225Z,27.47
2023-05-11T07:43:24.435Z,28.50
2023-05-11T07:44:24.237Z,29.59
2023-05-11T07:45:24.267Z,29.01
2023-05-11T07:46:24.284Z,28.96
2023-05-11T07:47:24.255Z,28.65
2023-05-11T07:48:24.250Z,28.74
2023-05-11T07:49:31.379Z,28.59
2023-05-11T07:50:25.485Z,28.99
2023-05-11T07:51:24.289Z,28.93
2023-05-11T07:52:24.234Z,28.12
2023-05-11T07:53:24.254Z,27.96
2023-05-11T07:54:24.199Z,27.96
2023-05-11T07:55:24.217Z,27.94
2023-05-11T07:56:24.189Z,27.97
2023-05-11T07:57:24.181Z,27.69
2023-05-11T07:58:24.232Z,27.67
2023-05-11T07:59:24.244Z,27.67
2023-05-11T08:00:24.367Z,27.59
2023-05-11T08:01:24.358Z,27.69
2023-05-11T08:02:24.559Z,27.75
2023-05-11T08:03:24.523Z,27.52
2023-05-11T08:04:24.595Z,27.75
2023-05-11T08:05:24.628Z,27.93
2023-05-11T08:06:24.712Z,27.95
2023-05-11T08:07:24.669Z,27.55
2023-05-11T08:08:24.718Z,27.41
2023-05-11T08:09:24.777Z,27.82
2023-05-11T08:10:24.825Z,27.64
2023-05-11T08:11:24.954Z,27.81
2023-05-11T08:12:24.955Z,28.09
2023-05-11T08:14:24.997Z,27.89
2023-05-11T08:15:25.066Z,28.63
2023-05-11T08:16:25.201Z,28.88
2023-05-11T08:17:25.157Z,29.20
2023-05-11T08:18:25.206Z,29.00
2023-05-11T08:19:25.134Z,28.71
2023-05-11T08:20:25.165Z,29.18
2023-05-11T08:21:25.168Z,29.14
2023-05-11T08:22:25.186Z,29.50
2023-05-11T08:23:25.187Z,29.51
2023-05-11T08:24:25.227Z,29.42
2023-05-11T08:25:25.200Z,29.53
2023-05-11T08:26:25.208Z,29.62
2023-05-11T08:27:25.208Z,29.85
2023-05-11T08:28:25.230Z,29.80
2023-05-11T08:29:25.272Z,29.70
2023-05-11T08:30:25.267Z,29.64
2023-05-11T08:31:25.387Z,29.93
2023-05-11T08:32:25.472Z,29.96
2023-05-11T08:33:37.743Z,29.96
2023-05-11T08:34:26.557Z,29.69
2023-05-11T08:35:25.471Z,29.10
2023-05-11T08:36:25.440Z,28.98
2023-05-11T08:37:25.415Z,28.90
2023-05-11T08:38:25.433Z,28.53
2023-05-11T08:39:45.361Z,28.46
2023-05-11T08:40:26.419Z,28.40
2023-05-11T08:41:25.417Z,28.26
2023-05-11T08:42:25.374Z,28.30
2023-05-11T08:43:25.464Z,28.21
2023-05-11T08:44:25.373Z,28.42
2023-05-11T08:45:25.456Z,27.97
2023-05-11T08:46:25.542Z,28.01
2023-05-11T08:47:25.353Z,28.15
2023-05-11T08:48:25.358Z,27.75
2023-05-11T08:49:25.359Z,27.98
2023-05-11T08:50:25.343Z,27.93
2023-05-11T08:51:25.353Z,27.96
2023-05-11T08:52:25.304Z,29.83
2023-05-11T08:53:25.319Z,30.48
2023-05-11T08:54:25.316Z,29.82
2023-05-11T08:55:25.298Z,30.83
2023-05-11T08:56:25.295Z,29.36
2023-05-11T08:57:25.288Z,28.77
2023-05-11T08:58:25.262Z,28.09
2023-05-11T08:59:25.273Z,28.56
2023-05-11T09:00:25.288Z,29.30
2023-05-11T09:01:25.398Z,29.98
2023-05-11T09:02:25.372Z,30.25
2023-05-11T09:03:25.304Z,29.74
2023-05-11T09:04:25.276Z,29.68
2023-05-11T09:05:25.316Z,28.60
2023-05-11T09:06:25.398Z,27.94
2023-05-11T09:07:25.331Z,28.11
2023-05-11T09:08:25.372Z,29.17
2023-05-11T09:09:25.364Z,29.37
2023-05-11T09:10:25.470Z,28.12
2023-05-11T09:11:25.404Z,28.19
2023-05-11T09:12:25.407Z,28.63
2023-05-11T09:13:25.449Z,29.04
2023-05-11T09:14:27.874Z,28.99
2023-05-11T09:15:25.491Z,29.50
2023-05-11T09:16:36.912Z,29.16
2023-05-11T09:17:26.522Z,29.20
2023-05-11T09:18:25.531Z,29.12
2023-05-11T09:19:25.462Z,29.32
2023-05-11T09:20:25.483Z,29.39
2023-05-11T09:21:25.545Z,29.16
2023-05-11T09:22:26.115Z,29.33
2023-05-11T09:23:25.505Z,27.88
2023-05-11T09:24:25.463Z,28.18
2023-05-11T09:25:25.520Z,28.69
2023-05-11T09:26:25.437Z,28.61
2023-05-11T09:27:25.426Z,28.23
2023-05-11T09:28:25.996Z,28.25
2023-05-11T09:29:30.483Z,28.36
2023-05-11T09:30:26.469Z,28.03
2023-05-11T09:31:25.442Z,28.76
2023-05-11T09:32:25.497Z,28.48
2023-05-11T09:33:25.373Z,28.95
2023-05-11T09:34:25.440Z,28.47
2023-05-11T09:35:25.362Z,28.04
2023-05-11T09:36:25.377Z,28.14
2023-05-11T09:37:25.384Z,29.14
2023-05-11T09:38:25.371Z,29.40
2023-05-11T09:39:35.419Z,28.94
2023-05-11T09:40:28.265Z,28.86
2023-05-11T09:41:26.409Z,29.28
2023-05-11T09:42:25.324Z,29.15
2023-05-11T09:43:25.341Z,28.94
2023-05-11T09:44:25.334Z,28.86
2023-05-11T09:45:25.341Z,29.15
2023-05-11T09:46:25.383Z,29.69
2023-05-11T09:47:25.309Z,30.19
2023-05-11T09:48:25.309Z,29.45
2023-05-11T09:49:25.290Z,28.83
2023-05-11T09:50:26.811Z,29.60
2023-05-11T09:51:25.340Z,29.19
2023-05-11T09:52:25.334Z,29.15
2023-05-11T09:53:26.721Z,29.35
2023-05-11T09:54:25.255Z,29.28
2023-05-11T09:55:25.253Z,29.48
2023-05-11T09:56:25.225Z,29.62
2023-05-11T09:57:25.229Z,29.36
2023-05-11T09:58:25.252Z,29.40
2023-05-11T09:59:26.706Z,29.10
2023-05-11T10:00:25.282Z,29.21
2023-05-11T10:01:25.250Z,29.01
2023-05-11T10:02:25.393Z,29.41
2023-05-11T10:03:25.338Z,29.84
2023-05-11T10:04:25.302Z,30.93
2023-05-11T10:05:25.214Z,30.83
2023-05-11T10:06:25.166Z,31.23
2023-05-11T10:07:25.180Z,30.86
2023-05-11T10:08:25.175Z,30.78
2023-05-11T10:09:25.176Z,30.58
2023-05-11T10:10:25.169Z,31.11
2023-05-11T10:11:26.349Z,31.18
2023-05-11T10:12:25.143Z,31.00
2023-05-11T10:13:25.132Z,30.89
2023-05-11T10:14:25.201Z,30.26
2023-05-11T10:15:25.181Z,29.96
2023-05-11T10:16:25.178Z,30.74
2023-05-11T10:17:25.175Z,30.12
2023-05-11T10:18:25.149Z,29.67
2023-05-11T10:19:25.138Z,30.02
2023-05-11T10:20:25.219Z,29.90
2023-05-11T10:21:25.297Z,30.35
2023-05-11T10:22:25.395Z,29.86
2023-05-11T10:23:25.391Z,29.96
2023-05-11T10:24:25.455Z,30.30
2023-05-11T10:25:25.550Z,29.97
2023-05-11T10:26:25.579Z,29.90
2023-05-11T10:27:25.635Z,30.42
2023-05-11T10:28:25.671Z,30.31
2023-05-11T10:29:25.748Z,30.35
2023-05-11T10:30:25.810Z,30.08
2023-05-11T10:31:25.824Z,30.15
2023-05-11T10:32:25.953Z,30.04
2023-05-11T10:33:25.969Z,30.31
2023-05-11T10:34:26.058Z,30.05
2023-05-11T10:35:26.036Z,31.26
2023-05-11T10:36:26.165Z,30.82
2023-05-11T10:37:26.178Z,30.71
2023-05-11T10:38:26.204Z,30.75
2023-05-11T10:39:26.528Z,31.11
2023-05-11T10:40:26.276Z,31.27
2023-05-11T10:41:26.392Z,32.23
2023-05-11T10:42:26.424Z,32.03
2023-05-11T10:43:26.464Z,32.50
2023-05-11T10:44:26.509Z,32.15
2023-05-11T10:45:28.532Z,32.07
2023-05-11T10:46:28.166Z,32.35
2023-05-11T10:47:26.565Z,32.46
2023-05-11T10:48:26.625Z,32.57
2023-05-11T10:49:26.557Z,32.21
2023-05-11T10:50:27.080Z,32.51
2023-05-11T10:51:26.550Z,32.43
2023-05-11T10:52:28.776Z,32.16
2023-05-11T10:53:26.507Z,32.64
2023-05-11T10:54:26.518Z,32.86
2023-05-11T10:55:26.560Z,32.75
2023-05-11T10:56:26.523Z,32.75
2023-05-11T10:57:26.482Z,32.28
2023-05-11T10:58:26.497Z,32.11
2023-05-11T10:59:26.485Z,32.84
2023-05-11T11:00:26.591Z,32.32
2023-05-11T11:01:26.554Z,31.97
2023-05-11T11:02:26.501Z,32.64
2023-05-11T11:03:26.485Z,32.36
2023-05-11T11:04:28.125Z,31.78
2023-05-11T11:05:26.493Z,32.12
2023-05-11T11:06:26.435Z,32.76
2023-05-11T11:07:26.444Z,32.49
2023-05-11T11:08:26.423Z,32.39
2023-05-11T11:09:26.546Z,32.39
2023-05-11T11:10:26.421Z,33.17
2023-05-11T11:11:26.422Z,32.29
2023-05-11T11:12:26.394Z,31.78
2023-05-11T11:13:26.409Z,32.87
2023-05-11T11:14:26.367Z,32.37
2023-05-11T11:15:26.515Z,32.30
2023-05-11T11:16:26.441Z,32.34
2023-05-11T11:17:26.406Z,32.66
2023-05-11T11:18:26.428Z,32.87
2023-05-11T11:19:26.356Z,31.72
2023-05-11T11:20:26.344Z,32.26
2023-05-11T11:21:26.400Z,32.54
2023-05-11T11:22:26.371Z,32.27
2023-05-11T11:23:26.322Z,32.37
2023-05-11T11:24:26.310Z,33.11
2023-05-11T11:25:26.593Z,33.03
2023-05-11T11:26:26.341Z,33.14
2023-05-11T11:27:28.857Z,32.93
2023-05-11T11:28:26.299Z,32.63
2023-05-11T11:29:26.326Z,32.22
2023-05-11T11:30:26.570Z,31.79
2023-05-11T11:31:26.433Z,31.37
2023-05-11T11:32:26.326Z,31.36
2023-05-11T11:33:26.260Z,31.20
2023-05-11T11:34:26.308Z,30.99
2023-05-11T11:35:26.532Z,31.00
2023-05-11T11:36:26.255Z,30.84
2023-05-11T11:37:26.273Z,30.75
2023-05-11T11:38:27.908Z,30.51
2023-05-11T11:39:26.213Z,30.55
2023-05-11T11:40:27.415Z,30.54
2023-05-11T11:41:26.199Z,30.53
2023-05-11T11:42:26.227Z,30.51
2023-05-11T11:43:26.256Z,30.62
2023-05-11T11:44:26.234Z,30.59
2023-05-11T11:45:26.237Z,30.59
2023-05-11T11:46:26.205Z,30.48
2023-05-11T11:47:26.442Z,30.53
2023-05-11T11:48:26.202Z,30.49
2023-05-11T11:49:26.192Z,30.47
2023-05-11T11:50:26.165Z,30.36
2023-05-11T11:51:26.182Z,30.36
2023-05-11T11:52:26.162Z,30.27
2023-05-11T11:53:26.135Z,30.13
2023-05-11T11:54:26.138Z,30.14
2023-05-11T11:55:26.119Z,29.96
2023-05-11T11:56:26.153Z,30.21
2023-05-11T11:57:26.136Z,30.15
2023-05-11T11:58:26.117Z,30.17
2023-05-11T11:59:26.126Z,30.12
2023-05-11T12:00:26.087Z,30.12
2023-05-11T12:01:26.079Z,30.21
2023-05-11T12:02:26.175Z,30.24
2023-05-11T12:03:26.164Z,30.08
2023-05-11T12:04:26.244Z,30.15
2023-05-11T12:05:26.247Z,30.24
2023-05-11T12:06:26.853Z,30.09
2023-05-11T12:07:26.239Z,30.24
2023-05-11T12:08:26.310Z,30.21
2023-05-11T12:09:26.394Z,30.16
2023-05-11T12:10:26.427Z,30.03
2023-05-11T12:11:26.498Z,30.04
2023-05-11T12:12:26.559Z,29.96
2023-05-11T12:13:26.623Z,29.98
2023-05-11T12:14:26.702Z,29.82
2023-05-11T12:15:26.748Z,29.75
2023-05-11T12:16:26.878Z,29.60
2023-05-11T12:17:26.917Z,29.62
2023-05-11T12:18:26.921Z,29.66
2023-05-11T12:19:26.981Z,29.60
2023-05-11T12:20:27.042Z,29.60
2023-05-11T12:21:27.106Z,29.57
2023-05-11T12:22:27.196Z,29.60
2023-05-11T12:23:27.263Z,29.59
2023-05-11T12:24:27.303Z,29.64
2023-05-11T12:25:27.384Z,29.62
2023-05-11T12:26:27.421Z,29.52
2023-05-11T12:27:27.487Z,29.42
2023-05-11T12:28:27.564Z,29.46
2023-05-11T12:29:27.595Z,29.32
2023-05-11T12:30:27.660Z,29.28
2023-05-11T12:31:27.720Z,29.23
2023-05-11T12:32:27.796Z,29.19
2023-05-11T12:33:27.844Z,29.17
2023-05-11T12:34:27.883Z,29.27
2023-05-11T12:35:27.894Z,29.32
2023-05-11T12:36:27.940Z,29.20
2023-05-11T12:37:28.000Z,29.19
2023-05-11T12:38:28.005Z,29.19
2023-05-11T12:39:28.048Z,29.20
2023-05-11T12:40:28.103Z,29.17
2023-05-11T12:41:28.137Z,28.99
2023-05-11T12:42:28.211Z,29.14
2023-05-11T12:43:28.196Z,28.87
2023-05-11T12:44:28.197Z,28.86
2023-05-11T12:45:28.227Z,28.88
2023-05-11T12:46:28.302Z,28.83
2023-05-11T12:47:28.329Z,28.84
2023-05-11T12:48:28.320Z,28.90
2023-05-11T12:49:28.303Z,28.86
2023-05-11T12:50:28.341Z,28.90
2023-05-11T12:51:28.354Z,28.84
2023-05-11T12:52:28.423Z,28.81
2023-05-11T12:53:28.423Z,28.85
2023-05-11T12:54:28.487Z,28.83
2023-05-11T12:55:28.530Z,28.84